createdAt,value
2017-06-21T00:00:43.917Z,12.03
2017-06-21T00:03:11.458Z,10.57
2017-06-21T00:05:38.938Z,10.70
2017-06-21T00:08:07.187Z,11.60
2017-06-21T00:10:34.664Z,12.03
2017-06-21T00:13:02.123Z,12.87
2017-06-21T00:15:30.374Z,15.40
2017-06-21T00:17:57.838Z,11.37
2017-06-21T00:20:25.391Z,11.97
2017-06-21T00:22:52.855Z,13.97
2017-06-21T00:25:20.314Z,13.30
2017-06-21T00:27:47.867Z,15.00
2017-06-21T00:30:15.426Z,13.73
2017-06-21T00:32:42.894Z,15.93
2017-06-21T00:35:11.150Z,15.83
2017-06-21T00:37:38.614Z,14.90
2017-06-21T00:40:06.170Z,16.37
2017-06-21T00:42:33.727Z,16.10
2017-06-21T00:45:01.186Z,15.80
2017-06-21T00:47:28.739Z,16.63
2017-06-21T00:49:56.195Z,16.50
2017-06-21T00:52:23.651Z,18.37
2017-06-21T00:54:51.114Z,15.37
2017-06-21T00:57:18.671Z,16.17
2017-06-21T00:59:46.230Z,14.80
2017-06-21T01:02:13.700Z,16.60
2017-06-21T01:04:41.969Z,16.70
2017-06-21T01:07:09.431Z,14.70
2017-06-21T01:09:37.696Z,16.93
2017-06-21T01:12:05.254Z,17.27
2017-06-21T01:14:32.734Z,17.10
2017-06-21T01:17:00.962Z,15.90
2017-06-21T01:19:28.422Z,15.73
2017-06-21T01:21:55.895Z,18.00
2017-06-21T01:24:23.355Z,17.30
2017-06-21T01:26:50.817Z,16.33
2017-06-21T01:29:18.278Z,14.37
2017-06-21T01:31:45.743Z,16.60
2017-06-21T01:34:13.994Z,16.07
2017-06-21T01:36:41.554Z,16.20
2017-06-21T01:39:09.114Z,16.90
2017-06-21T01:41:36.586Z,17.00
2017-06-21T01:44:04.811Z,15.67
2017-06-21T01:46:32.285Z,15.23
2017-06-21T01:48:59.742Z,15.77
2017-06-21T01:51:27.215Z,17.40
2017-06-21T01:53:54.679Z,17.00
2017-06-21T01:56:22.934Z,16.50
2017-06-21T01:58:50.407Z,16.53
2017-06-21T02:01:17.867Z,19.03
2017-06-21T02:03:46.103Z,16.37
2017-06-21T02:06:13.567Z,16.03
2017-06-21T02:08:41.147Z,16.90
2017-06-21T02:11:08.602Z,17.03
2017-06-21T02:13:36.155Z,17.30
2017-06-21T02:16:03.715Z,17.47
2017-06-21T02:18:31.183Z,19.30
2017-06-21T02:20:58.643Z,19.43
2017-06-21T02:23:26.867Z,19.30
2017-06-21T02:25:54.368Z,18.30
2017-06-21T02:28:21.928Z,17.30
2017-06-21T02:30:49.484Z,19.10
2017-06-21T02:33:17.039Z,19.57
2017-06-21T02:35:44.604Z,19.23
2017-06-21T02:38:12.166Z,18.83
2017-06-21T02:40:39.633Z,18.77
2017-06-21T02:43:07.892Z,18.83
2017-06-21T02:45:35.362Z,19.33
2017-06-21T02:48:03.591Z,19.17
2017-06-21T02:50:31.175Z,14.70
2017-06-21T02:52:58.635Z,17.03
2017-06-21T02:55:26.099Z,17.43
2017-06-21T02:57:53.572Z,18.83
2017-06-21T03:00:21.823Z,16.20
2017-06-21T03:02:49.286Z,16.90
2017-06-21T03:05:16.747Z,17.57
2017-06-21T03:07:45.011Z,18.03
2017-06-21T03:10:12.473Z,18.87
2017-06-21T03:12:39.941Z,18.73
2017-06-21T03:15:20.078Z,18.43
2017-06-21T03:17:47.636Z,19.90
2017-06-21T03:20:15.186Z,17.53
2017-06-21T03:22:42.742Z,19.33
2017-06-21T03:25:10.219Z,16.63
2017-06-21T03:27:38.450Z,17.20
2017-06-21T03:30:05.923Z,18.10
2017-06-21T03:32:33.385Z,17.60
2017-06-21T03:35:00.956Z,18.63
2017-06-21T03:37:29.598Z,20.93
2017-06-21T03:39:57.063Z,17.33
2017-06-21T03:42:24.519Z,18.00
2017-06-21T03:44:52.007Z,18.20
2017-06-21T03:47:19.568Z,19.17
2017-06-21T03:49:47.043Z,18.30
2017-06-21T03:52:14.595Z,18.40
2017-06-21T03:54:42.858Z,19.03
2017-06-21T03:57:10.409Z,18.60
2017-06-21T03:59:37.873Z,19.33
2017-06-21T04:02:05.339Z,19.97
2017-06-21T04:04:33.574Z,16.80
2017-06-21T04:07:01.039Z,18.17
2017-06-21T04:09:28.495Z,16.33
2017-06-21T04:11:55.962Z,17.57
2017-06-21T04:14:23.534Z,16.83
2017-06-21T04:16:51.095Z,19.47
2017-06-21T04:19:18.645Z,17.37
2017-06-21T04:21:46.207Z,16.70
2017-06-21T04:24:13.662Z,17.13
2017-06-21T04:26:41.118Z,14.77
2017-06-21T04:29:08.678Z,14.70
2017-06-21T07:32:36.713Z,12.83
2017-06-21T07:35:04.973Z,12.20
2017-06-21T07:37:32.522Z,11.70
2017-06-21T07:40:00.092Z,11.83
2017-06-21T07:42:27.560Z,12.00
2017-06-21T07:44:55.821Z,12.63
2017-06-21T07:47:23.288Z,12.47
2017-06-21T07:49:51.542Z,11.80
2017-06-21T07:52:19.003Z,13.43
2017-06-21T07:54:46.555Z,13.00
2017-06-21T07:57:14.119Z,12.30
2017-06-21T07:59:41.580Z,10.60
2017-06-21T08:02:09.050Z,12.93
2017-06-21T08:04:36.592Z,11.80
2017-06-21T08:07:04.050Z,12.83
2017-06-21T08:09:31.607Z,11.57
2017-06-21T08:11:59.074Z,12.63
2017-06-21T08:14:26.540Z,13.97
2017-06-21T08:16:54.774Z,13.20
2017-06-21T08:19:22.251Z,12.70
2017-06-21T08:21:49.807Z,11.53
2017-06-21T08:24:17.271Z,12.90
2017-06-21T08:26:44.827Z,12.03
2017-06-21T08:29:12.290Z,10.80
2017-06-21T08:31:39.838Z,13.53
2017-06-21T08:34:07.294Z,11.97
2017-06-21T08:36:34.759Z,13.20
2017-06-21T08:39:02.222Z,15.00
2017-06-21T08:41:29.682Z,13.70
2017-06-21T08:43:57.938Z,15.03
2017-06-21T08:46:25.398Z,14.57
2017-06-21T08:48:52.954Z,12.93
2017-06-21T08:51:20.415Z,14.90
2017-06-21T08:53:47.974Z,14.20
2017-06-21T08:56:15.430Z,14.77
2017-06-21T08:58:42.890Z,13.27
2017-06-21T09:01:10.354Z,12.30
2017-06-21T09:03:38.622Z,15.00
2017-06-21T09:06:06.083Z,13.07
2017-06-21T09:08:33.635Z,13.73
2017-06-21T09:11:01.190Z,12.93
2017-06-21T09:13:28.660Z,14.00
2017-06-21T09:15:56.223Z,13.53
2017-06-21T09:18:23.671Z,13.37
2017-06-21T09:20:51.214Z,14.20
2017-06-21T09:23:18.683Z,13.50
2017-06-21T09:25:46.235Z,12.07
2017-06-21T09:28:13.700Z,13.60
2017-06-21T09:30:41.162Z,12.63
2017-06-21T09:33:09.417Z,11.43
2017-06-21T09:35:36.974Z,12.00
2017-06-21T09:38:04.434Z,11.53
2017-06-21T09:40:31.991Z,12.33
2017-06-21T09:42:59.458Z,13.93
2017-06-21T09:45:26.930Z,13.17
2017-06-21T09:47:55.163Z,13.50
2017-06-21T09:50:22.627Z,11.83
2017-06-21T09:52:50.099Z,11.30
2017-06-21T09:55:17.652Z,16.93
2017-06-21T09:57:45.211Z,11.70
2017-06-21T10:00:12.676Z,10.37
2017-06-21T10:02:40.222Z,10.47
2017-06-21T10:05:07.783Z,10.20
2017-06-21T10:07:35.247Z,10.23
2017-06-21T10:10:02.799Z,9.40
2017-06-21T10:12:30.258Z,10.43
2017-06-21T10:14:57.725Z,10.27
2017-06-21T10:17:25.190Z,10.03
2017-06-21T10:19:53.442Z,9.10
2017-06-21T10:22:20.903Z,8.20
2017-06-21T10:24:48.462Z,9.73
2017-06-21T10:27:15.950Z,12.13
2017-06-21T10:29:43.398Z,8.97
2017-06-21T10:32:11.643Z,8.80
2017-06-21T10:34:39.098Z,8.40
2017-06-21T10:37:06.558Z,10.07
2017-06-21T10:39:34.113Z,9.23
2017-06-21T10:42:01.569Z,8.73
2017-06-21T10:44:29.022Z,8.27
2017-06-21T10:46:56.482Z,8.07
2017-06-21T10:49:23.940Z,9.43
2017-06-21T10:51:51.395Z,8.17
2017-06-21T10:54:18.863Z,8.63
2017-06-21T10:56:46.406Z,8.47
2017-06-21T10:59:13.892Z,8.00
2017-06-21T11:01:42.115Z,11.10
2017-06-21T11:04:09.590Z,8.17
2017-06-21T11:06:37.145Z,7.43
2017-06-21T11:09:04.598Z,7.77
2017-06-21T11:11:32.162Z,7.67
2017-06-21T11:13:59.613Z,7.87
2017-06-21T11:16:27.067Z,8.30
2017-06-21T11:18:54.523Z,9.13
2017-06-21T11:21:22.096Z,7.90
2017-06-21T11:23:49.539Z,7.20
2017-06-21T11:26:17.002Z,6.93
2017-06-21T11:28:44.457Z,7.60
2017-06-21T11:31:11.924Z,7.90
2017-06-21T11:33:39.382Z,8.23
2017-06-21T11:36:06.846Z,7.43
2017-06-21T11:38:34.298Z,7.83
2017-06-21T11:41:01.754Z,7.63
2017-06-21T11:43:29.306Z,7.17
2017-06-21T11:45:56.763Z,8.10
2017-06-21T11:48:24.226Z,8.47
2017-06-21T11:50:51.770Z,7.93
2017-06-21T11:53:19.242Z,7.90
2017-06-21T11:55:46.699Z,9.43
2017-06-21T11:58:14.961Z,8.80
2017-06-21T12:00:42.534Z,8.77
2017-06-21T12:03:10.803Z,9.87
2017-06-21T12:05:38.254Z,8.70
2017-06-21T12:08:05.812Z,8.43
2017-06-21T12:10:33.265Z,7.27
2017-06-21T12:13:00.822Z,8.87
2017-06-21T12:15:28.290Z,7.33
2017-06-21T12:17:55.839Z,9.17
2017-06-21T12:20:23.306Z,11.77
2017-06-21T12:22:50.863Z,8.60
2017-06-21T12:25:18.322Z,9.70
2017-06-21T12:27:46.587Z,9.70
2017-06-21T12:30:14.043Z,9.90
2017-06-21T12:32:41.506Z,10.43
2017-06-21T12:35:08.976Z,8.50
2017-06-21T12:37:37.230Z,10.00
2017-06-21T12:40:04.687Z,9.50
2017-06-21T12:42:32.246Z,8.40
2017-06-21T12:44:59.701Z,8.33
2017-06-21T12:47:27.163Z,9.33
2017-06-21T12:49:54.716Z,8.43
2017-06-21T12:52:22.182Z,8.40
2017-06-21T12:54:49.637Z,8.20
2017-06-21T12:57:17.094Z,8.40
2017-06-21T12:59:44.631Z,7.10
2017-06-21T13:02:12.164Z,8.50
2017-06-21T13:04:39.650Z,8.10
2017-06-21T13:07:07.206Z,7.67
2017-06-21T13:09:34.775Z,7.30
2017-06-21T13:12:02.231Z,9.23
2017-06-21T13:14:29.690Z,8.27
2017-06-21T13:16:57.238Z,7.63
2017-06-21T13:19:24.802Z,8.13
2017-06-21T13:21:52.251Z,8.07
2017-06-21T13:24:19.821Z,7.97
2017-06-21T13:26:47.274Z,7.53
2017-06-21T13:29:14.738Z,7.60
2017-06-21T13:31:42.282Z,6.37
2017-06-21T13:34:09.757Z,11.87
2017-06-21T13:36:38.024Z,16.23
2017-06-21T13:39:05.470Z,6.53
2017-06-21T13:41:33.040Z,5.53
2017-06-21T13:44:00.590Z,10.30
2017-06-21T13:46:28.155Z,6.80
2017-06-21T13:48:55.602Z,6.20
2017-06-21T13:51:23.063Z,6.07
2017-06-21T13:53:50.518Z,12.60
2017-06-21T13:56:17.974Z,9.53
2017-06-21T13:58:45.539Z,5.90
2017-06-21T14:01:13.004Z,6.70
2017-06-21T14:03:40.453Z,6.70
2017-06-21T14:06:08.004Z,6.57
2017-06-21T14:08:35.463Z,6.47
2017-06-21T14:11:02.939Z,5.03
2017-06-21T14:13:31.199Z,6.13
2017-06-21T14:15:58.758Z,6.33
2017-06-21T14:18:26.238Z,5.27
2017-06-21T14:20:54.490Z,5.40
2017-06-21T14:23:21.959Z,6.57
2017-06-21T14:25:50.190Z,5.60
2017-06-21T14:28:17.643Z,5.47
2017-06-21T14:30:45.091Z,6.77
2017-06-21T14:33:12.562Z,6.60
2017-06-21T14:35:40.039Z,5.50
2017-06-21T14:38:07.503Z,6.00
2017-06-21T14:40:35.063Z,5.83
2017-06-21T14:43:02.522Z,6.10
2017-06-21T14:45:30.746Z,5.20
2017-06-21T14:47:58.243Z,5.13
2017-06-21T14:50:25.695Z,5.67
2017-06-21T14:52:53.148Z,5.50
2017-06-21T14:55:20.598Z,6.10
2017-06-21T14:57:48.062Z,5.73
2017-06-21T15:00:15.514Z,5.07
2017-06-21T15:02:43.079Z,4.97
2017-06-21T15:05:10.538Z,5.80
2017-06-21T15:10:12.686Z,5.50
2017-06-21T15:12:40.142Z,5.20
2017-06-21T15:15:07.597Z,10.13
2017-06-21T15:17:35.086Z,4.80
2017-06-21T15:20:02.568Z,5.40
2017-06-21T15:22:30.798Z,5.20
2017-06-21T15:24:58.277Z,7.33
2017-06-21T15:27:25.746Z,5.60
2017-06-21T15:29:53.966Z,5.00
2017-06-21T15:32:21.462Z,5.43
2017-06-21T15:34:48.912Z,5.70
2017-06-21T15:37:16.471Z,6.67
2017-06-21T15:39:43.922Z,6.37
2017-06-21T15:42:11.382Z,5.23
2017-06-21T15:44:38.831Z,6.10
2017-06-21T15:47:06.403Z,6.87
2017-06-21T15:49:33.854Z,5.60
2017-06-21T15:52:01.321Z,5.60
2017-06-21T15:54:28.867Z,5.43
2017-06-21T15:57:02.014Z,5.33
2017-06-21T15:59:29.470Z,4.47
2017-06-21T16:01:56.955Z,4.73
2017-06-21T16:04:24.398Z,7.10
2017-06-21T16:06:51.850Z,6.00
2017-06-21T16:09:19.326Z,6.70
2017-06-21T16:11:46.794Z,5.97
2017-06-21T16:14:14.254Z,6.27
2017-06-21T16:16:41.822Z,6.60
2017-06-21T16:19:09.274Z,6.83
2017-06-21T16:21:36.730Z,7.43
2017-06-21T16:24:04.187Z,6.60
2017-06-21T16:26:31.643Z,5.70
2017-06-21T16:28:59.108Z,6.63
2017-06-21T16:31:26.567Z,6.43
2017-06-21T16:33:54.018Z,6.30
2017-06-21T16:36:21.473Z,5.53
2017-06-21T16:38:48.967Z,7.20
2017-06-21T16:41:16.484Z,6.00
2017-06-21T16:43:43.949Z,6.73
2017-06-21T16:46:11.407Z,6.23
2017-06-21T16:48:39.674Z,6.37
2017-06-21T16:51:07.159Z,6.10
2017-06-21T16:53:34.612Z,6.83
2017-06-21T16:56:02.846Z,5.13
2017-06-21T16:58:30.308Z,6.80
2017-06-21T17:00:57.770Z,6.47
2017-06-21T17:03:25.238Z,8.07
2017-06-21T17:05:52.775Z,6.93
2017-06-21T17:08:20.230Z,6.50
2017-06-21T17:10:47.698Z,6.17
2017-06-21T17:13:15.147Z,6.37
2017-06-21T17:15:42.606Z,6.27
2017-06-21T17:18:10.063Z,6.13
2017-06-21T17:20:37.520Z,6.43
2017-06-21T17:23:05.078Z,6.73
2017-06-21T17:25:32.531Z,7.10
2017-06-21T17:28:00.003Z,6.97
2017-06-21T17:30:28.263Z,7.47
2017-06-21T17:32:55.731Z,6.50
2017-06-21T17:35:23.958Z,5.87
2017-06-21T17:37:51.456Z,5.97
2017-06-21T17:40:18.910Z,6.93
2017-06-21T17:42:46.460Z,7.17
2017-06-21T17:45:13.909Z,7.43
2017-06-21T17:47:41.487Z,7.17
2017-06-21T17:50:08.948Z,7.40
2017-06-21T17:52:36.403Z,7.33
2017-06-21T17:55:03.866Z,6.73
2017-06-21T17:57:32.086Z,7.00
2017-06-21T17:59:59.580Z,6.00
2017-06-21T18:02:27.045Z,8.00
2017-06-21T18:04:54.503Z,8.57
2017-06-21T18:07:22.055Z,7.17
2017-06-21T18:09:49.527Z,6.90
2017-06-21T18:12:17.747Z,7.60
2017-06-21T18:14:45.203Z,7.90
2017-06-21T18:17:12.667Z,7.40
2017-06-21T18:19:40.129Z,8.10
2017-06-21T18:22:07.590Z,6.97
2017-06-21T18:24:35.042Z,8.07
2017-06-21T18:27:04.608Z,8.10
2017-06-21T18:29:32.182Z,7.80
2017-06-21T18:31:59.678Z,7.47
2017-06-21T18:34:27.140Z,9.20
2017-06-21T18:36:54.607Z,8.17
2017-06-21T18:39:22.062Z,7.63
2017-06-21T18:41:49.611Z,8.00
2017-06-21T18:44:17.070Z,12.00
2017-06-21T18:46:44.532Z,10.33
2017-06-21T18:49:11.994Z,8.33
2017-06-21T18:51:40.258Z,9.27
2017-06-21T18:54:07.718Z,8.00
2017-06-21T18:56:35.177Z,7.90
2017-06-21T18:59:03.448Z,8.20
2017-06-21T19:01:30.906Z,7.83
2017-06-21T19:03:58.906Z,7.93
2017-06-21T19:06:26.494Z,8.90
2017-06-21T19:08:54.119Z,9.27
2017-06-21T19:11:21.660Z,7.83
2017-06-21T19:13:49.122Z,8.20
2017-06-21T19:16:18.378Z,7.80
2017-06-21T19:18:46.207Z,8.27
2017-06-21T19:21:13.714Z,9.43
2017-06-21T19:23:41.318Z,8.73
2017-06-21T19:26:08.807Z,8.77
2017-06-21T19:28:36.351Z,8.17
2017-06-21T19:31:03.829Z,9.07
2017-06-21T19:33:31.440Z,8.90
2017-06-21T19:36:00.210Z,8.67
2017-06-21T19:38:27.658Z,8.17
2017-06-21T19:40:55.214Z,8.70
2017-06-21T19:43:22.675Z,9.20
2017-06-21T19:45:50.135Z,8.30
2017-06-21T19:48:17.591Z,8.53
2017-06-21T19:50:45.814Z,8.83
2017-06-21T19:53:13.287Z,8.73
2017-06-21T19:55:40.771Z,9.13
2017-06-21T19:58:08.225Z,9.17
2017-06-21T20:00:35.859Z,8.57
2017-06-21T20:03:03.322Z,8.43
2017-06-21T20:05:30.770Z,9.97
2017-06-21T20:07:58.258Z,9.93
2017-06-21T20:10:25.712Z,9.83
2017-06-21T20:12:53.199Z,10.10
2017-06-21T20:15:20.670Z,13.70
2017-06-21T20:17:48.155Z,12.23
2017-06-21T20:20:15.630Z,10.10
2017-06-21T20:22:43.123Z,11.63
2017-06-21T20:25:11.354Z,10.40
2017-06-21T20:27:38.823Z,11.10
2017-06-21T20:30:06.291Z,11.10
2017-06-21T20:32:33.748Z,10.77
2017-06-21T20:35:01.216Z,11.10
2017-06-21T20:37:28.670Z,10.93
2017-06-21T20:39:56.912Z,10.70
2017-06-21T20:42:24.366Z,11.93
2017-06-21T20:44:51.830Z,9.43
2017-06-21T20:47:19.287Z,9.00
2017-06-21T20:49:46.744Z,9.83
2017-06-21T20:52:14.190Z,9.73
2017-06-21T20:54:41.662Z,8.77
2017-06-21T20:57:09.127Z,8.00
2017-06-21T20:59:36.635Z,9.47
2017-06-21T21:02:04.098Z,10.57
2017-06-21T21:04:31.558Z,10.27
2017-06-21T21:06:59.022Z,9.90
2017-06-21T21:09:26.484Z,11.20
2017-06-21T21:11:54.053Z,10.27
2017-06-21T21:14:21.507Z,11.03
2017-06-21T21:16:49.078Z,9.30
2017-06-21T21:19:16.531Z,8.67
2017-06-21T21:21:44.090Z,10.10
2017-06-21T21:24:11.547Z,9.10
2017-06-21T21:26:38.994Z,8.43
2017-06-21T21:29:06.458Z,9.07
2017-06-21T21:31:33.919Z,9.20
2017-06-21T21:34:01.382Z,9.60
2017-06-21T21:36:28.826Z,9.13
2017-06-21T21:38:56.300Z,9.23
2017-06-21T21:41:23.750Z,10.53
2017-06-21T21:43:51.210Z,9.67
2017-06-21T21:46:19.475Z,10.33
2017-06-21T21:48:46.942Z,10.07
2017-06-21T21:51:15.158Z,9.40
2017-06-21T21:53:42.634Z,9.83
2017-06-21T21:56:10.094Z,10.13
2017-06-21T21:58:37.572Z,10.77
2017-06-21T22:02:38.002Z,8.83
2017-06-21T22:05:05.470Z,10.73
2017-06-21T22:07:32.918Z,9.63
2017-06-21T22:10:00.382Z,10.80
2017-06-21T22:12:27.839Z,10.13
2017-06-21T22:14:55.310Z,10.93
2017-06-21T22:17:23.532Z,10.17
2017-06-21T22:19:51.019Z,9.60
2017-06-21T22:22:18.477Z,9.67
2017-06-21T22:24:46.034Z,10.90
2017-06-21T22:27:13.497Z,10.77
2017-06-21T22:29:40.958Z,11.20
2017-06-21T22:32:09.218Z,10.67
2017-06-21T22:34:36.778Z,11.30
2017-06-21T22:37:04.238Z,10.83
2017-06-21T22:39:31.695Z,9.13
2017-06-21T22:41:59.249Z,10.97
2017-06-21T22:44:26.713Z,10.37
2017-06-21T22:46:54.266Z,11.43
2017-06-21T22:49:21.735Z,11.53
2017-06-21T22:51:50.000Z,12.00
2017-06-21T22:54:17.546Z,12.53
2017-06-21T22:56:45.013Z,11.90
2017-06-21T22:59:12.478Z,11.03
2017-06-21T23:01:39.938Z,10.57
2017-06-21T23:04:08.169Z,11.10
2017-06-21T23:06:35.635Z,11.20
2017-06-21T23:09:03.122Z,11.47
2017-06-21T23:11:31.386Z,13.33
2017-06-21T23:13:58.934Z,9.97
2017-06-21T23:16:26.407Z,12.00
2017-06-21T23:18:53.858Z,11.73
2017-06-21T23:21:21.322Z,10.97
2017-06-21T23:23:49.481Z,11.30
2017-06-21T23:26:16.951Z,10.87
2017-06-21T23:28:44.502Z,11.17
2017-06-21T23:31:12.055Z,10.93
2017-06-21T23:33:39.526Z,11.87
2017-06-21T23:36:06.986Z,11.43
2017-06-21T23:38:35.250Z,12.53
2017-06-21T23:41:02.811Z,11.90
2017-06-21T23:43:30.275Z,13.30
2017-06-21T23:45:58.506Z,12.47
2017-06-21T23:48:25.969Z,12.40
2017-06-21T23:50:53.422Z,11.47
2017-06-21T23:53:20.899Z,13.77
2017-06-21T23:55:48.371Z,12.37
2017-06-21T23:58:15.847Z,11.93
